createdAt,value
2018-09-22T00:00:56.021Z,12.50
2018-09-22T00:03:31.024Z,12.50
2018-09-22T00:06:06.112Z,12.40
2018-09-22T00:08:40.879Z,12.40
2018-09-22T00:11:15.845Z,12.50
2018-09-22T00:13:50.914Z,12.40
2018-09-22T00:16:25.850Z,12.30
2018-09-22T00:19:01.394Z,12.30
2018-09-22T00:21:36.355Z,12.30
2018-09-22T00:24:11.150Z,12.30
2018-09-22T00:26:46.370Z,12.20
2018-09-22T00:29:21.234Z,12.20
2018-09-22T00:31:56.904Z,12.20
2018-09-22T00:34:31.894Z,12.10
2018-09-22T00:37:07.090Z,12.00
2018-09-22T00:39:42.098Z,11.80
2018-09-22T00:42:16.943Z,11.80
2018-09-22T00:44:52.499Z,11.80
2018-09-22T00:47:27.430Z,11.90
2018-09-22T00:50:02.409Z,11.80
2018-09-22T00:52:37.528Z,11.90
2018-09-22T00:55:12.617Z,11.90
2018-09-22T00:57:47.653Z,11.90
2018-09-22T01:00:22.458Z,11.80
2018-09-22T01:02:57.147Z,11.80
2018-09-22T01:05:31.941Z,11.90
2018-09-22T01:08:06.712Z,11.90
2018-09-22T01:10:41.739Z,11.80
2018-09-22T01:13:16.383Z,11.80
2018-09-22T01:15:51.628Z,11.80
2018-09-22T01:18:26.601Z,11.70
2018-09-22T01:21:01.384Z,11.80
2018-09-22T01:23:36.611Z,11.80
2018-09-22T01:26:11.506Z,11.70
2018-09-22T01:28:46.255Z,11.80
2018-09-22T01:31:21.710Z,11.80
2018-09-22T01:33:56.783Z,11.80
2018-09-22T01:36:31.482Z,11.70
2018-09-22T01:39:08.783Z,11.70
2018-09-22T01:41:43.503Z,11.70
2018-09-22T01:44:18.406Z,11.90
2018-09-22T01:46:53.354Z,11.70
2018-09-22T01:49:28.154Z,11.60
2018-09-22T01:52:03.124Z,11.70
2018-09-22T01:54:38.200Z,11.70
2018-09-22T01:57:13.009Z,11.70
2018-09-22T01:59:47.673Z,11.70
2018-09-22T02:02:22.659Z,11.70
2018-09-22T02:04:57.273Z,11.60
2018-09-22T02:07:32.919Z,11.60
2018-09-22T02:10:07.998Z,11.60
2018-09-22T02:12:42.914Z,11.50
2018-09-22T02:15:17.610Z,11.60
2018-09-22T02:17:52.421Z,11.80
2018-09-22T02:20:27.433Z,11.70
2018-09-22T02:23:02.173Z,11.70
2018-09-22T02:25:37.870Z,11.80
2018-09-22T02:28:12.704Z,11.80
2018-09-22T02:30:47.523Z,11.70
2018-09-22T02:33:22.397Z,11.70
2018-09-22T02:35:57.178Z,11.80
2018-09-22T02:38:32.257Z,11.80
2018-09-22T02:41:07.536Z,11.80
2018-09-22T02:43:42.405Z,11.80
2018-09-22T02:46:18.055Z,11.80
2018-09-22T02:48:52.994Z,11.80
2018-09-22T02:51:28.049Z,11.80
2018-09-22T02:54:03.510Z,11.80
2018-09-22T02:56:38.218Z,11.70
2018-09-22T02:59:13.178Z,11.80
2018-09-22T03:01:47.885Z,11.80
2018-09-22T03:04:22.727Z,11.70
2018-09-22T03:06:57.501Z,11.80
2018-09-22T03:09:32.522Z,11.70
2018-09-22T03:12:07.467Z,11.80
2018-09-22T03:14:42.202Z,11.80
2018-09-22T03:17:17.061Z,11.80
2018-09-22T03:19:51.990Z,11.80
2018-09-22T03:22:29.916Z,11.80
2018-09-22T03:25:04.930Z,11.70
2018-09-22T03:27:39.669Z,11.60
2018-09-22T03:30:14.754Z,11.60
2018-09-22T03:32:49.585Z,11.60
2018-09-22T03:35:24.265Z,11.50
2018-09-22T03:37:59.811Z,11.40
2018-09-22T03:40:35.055Z,11.50
2018-09-22T03:43:10.214Z,11.50
2018-09-22T03:45:45.636Z,11.40
2018-09-22T03:48:20.619Z,11.40
2018-09-22T03:50:55.541Z,11.40
2018-09-22T03:53:30.421Z,11.40
2018-09-22T03:56:05.862Z,11.40
2018-09-22T03:58:40.894Z,11.40
2018-09-22T04:01:15.488Z,11.40
2018-09-22T04:03:50.359Z,11.40
2018-09-22T04:06:25.376Z,11.40
2018-09-22T04:09:00.034Z,11.40
2018-09-22T04:11:34.917Z,11.40
2018-09-22T04:14:10.046Z,11.30
2018-09-22T04:16:44.665Z,11.30
2018-09-22T04:19:19.779Z,11.30
2018-09-22T04:21:54.585Z,11.20
2018-09-22T04:24:29.350Z,11.20
2018-09-22T04:27:04.765Z,11.10
2018-09-22T04:29:39.837Z,11.00
2018-09-22T04:32:14.880Z,10.70
2018-09-22T04:34:49.656Z,10.80
2018-09-22T04:37:25.168Z,10.90
2018-09-22T04:39:59.801Z,10.80
2018-09-22T04:42:35.158Z,10.90
2018-09-22T04:45:09.846Z,10.90
2018-09-22T04:47:44.612Z,10.90
2018-09-22T04:50:19.306Z,10.80
2018-09-22T04:52:54.221Z,10.80
2018-09-22T04:55:29.211Z,10.80
2018-09-22T04:58:04.013Z,10.70
2018-09-22T05:00:38.913Z,10.60
2018-09-22T05:03:13.545Z,10.70
2018-09-22T05:05:48.482Z,10.60
2018-09-22T05:08:23.258Z,10.50
2018-09-22T05:10:58.058Z,10.50
2018-09-22T05:13:33.076Z,10.50
2018-09-22T05:16:09.226Z,10.40
2018-09-22T05:18:44.002Z,10.40
2018-09-22T05:21:19.084Z,10.30
2018-09-22T05:23:53.794Z,10.30
2018-09-22T05:26:28.757Z,10.20
2018-09-22T05:29:03.646Z,10.30
2018-09-22T05:31:38.329Z,10.20
2018-09-22T05:34:13.903Z,10.20
2018-09-22T05:36:48.755Z,10.20
2018-09-22T05:39:24.085Z,10.20
2018-09-22T05:41:58.995Z,10.20
2018-09-22T05:44:33.738Z,10.20
2018-09-22T05:47:08.550Z,10.10
2018-09-22T05:49:43.545Z,10.20
2018-09-22T05:52:19.034Z,10.20
2018-09-22T05:54:54.006Z,10.30
2018-09-22T05:57:30.032Z,10.30
2018-09-22T06:00:05.589Z,10.10
2018-09-22T06:02:40.570Z,10.40
2018-09-22T06:05:15.635Z,10.40
2018-09-22T06:07:50.258Z,10.40
2018-09-22T06:10:24.996Z,10.50
2018-09-22T06:12:59.822Z,10.60
2018-09-22T06:15:34.862Z,10.50
2018-09-22T06:18:09.750Z,10.50
2018-09-22T06:20:44.729Z,10.60
2018-09-22T06:23:20.299Z,10.70
2018-09-22T06:25:55.156Z,10.80
2018-09-22T06:28:30.405Z,10.90
2018-09-22T06:31:05.493Z,11.00
2018-09-22T06:33:40.392Z,10.80
2018-09-22T06:36:15.124Z,10.90
2018-09-22T06:38:50.738Z,11.20
2018-09-22T06:41:25.640Z,11.10
2018-09-22T06:44:00.678Z,11.30
2018-09-22T06:46:35.306Z,11.20
2018-09-22T06:49:10.535Z,11.20
2018-09-22T06:51:45.412Z,11.20
2018-09-22T06:54:20.292Z,11.50
2018-09-22T06:56:55.339Z,11.60
2018-09-22T06:59:30.826Z,11.70
2018-09-22T07:02:05.611Z,12.00
2018-09-22T07:04:41.545Z,11.80
2018-09-22T07:07:17.363Z,11.90
2018-09-22T07:09:52.171Z,11.90
2018-09-22T07:12:27.409Z,12.20
2018-09-22T07:15:02.266Z,12.20
2018-09-22T07:17:36.990Z,12.20
2018-09-22T07:20:11.669Z,12.20
2018-09-22T07:22:51.714Z,12.40
2018-09-22T07:25:26.964Z,12.60
2018-09-22T07:28:01.790Z,12.90
2018-09-22T07:30:37.301Z,13.00
2018-09-22T07:33:12.100Z,13.10
2018-09-22T07:35:47.196Z,13.30
2018-09-22T07:38:21.980Z,13.40
2018-09-22T07:40:56.863Z,13.50
2018-09-22T07:43:31.956Z,13.20
2018-09-22T07:46:07.001Z,13.50
2018-09-22T07:48:41.841Z,13.50
2018-09-22T07:51:16.894Z,13.70
2018-09-22T07:53:52.510Z,13.90
2018-09-22T07:56:27.353Z,13.70
2018-09-22T07:59:02.205Z,13.70
2018-09-22T08:01:38.027Z,14.20
2018-09-22T08:04:12.944Z,14.10
2018-09-22T08:06:47.950Z,14.60
2018-09-22T08:09:23.039Z,15.30
2018-09-22T08:11:58.134Z,15.50
2018-09-22T08:14:33.462Z,16.10
2018-09-22T08:17:08.906Z,16.20
2018-09-22T08:19:44.158Z,16.50
2018-09-22T08:22:20.676Z,16.70
2018-09-22T08:24:56.531Z,16.80
2018-09-22T08:27:32.484Z,17.40
2018-09-22T08:30:08.432Z,17.30
2018-09-22T08:32:43.906Z,16.70
2018-09-22T08:35:19.205Z,16.40
2018-09-22T08:37:54.711Z,16.60
2018-09-22T08:40:30.023Z,16.70
2018-09-22T08:43:05.369Z,16.80
2018-09-22T08:45:40.911Z,17.20
2018-09-22T08:48:16.236Z,16.90
2018-09-22T08:50:51.990Z,16.60
2018-09-22T08:53:27.477Z,16.50
2018-09-22T08:56:02.996Z,16.70
2018-09-22T08:58:38.440Z,16.50
2018-09-22T09:01:13.915Z,16.50
2018-09-22T09:03:49.527Z,16.30
2018-09-22T09:06:25.510Z,16.40
2018-09-22T09:09:00.810Z,16.50
2018-09-22T09:11:37.526Z,16.70
2018-09-22T09:14:13.611Z,17.20
2018-09-22T09:16:49.260Z,16.90
2018-09-22T09:19:24.650Z,17.40
2018-09-22T09:22:00.045Z,17.00
2018-09-22T09:24:35.930Z,17.30
2018-09-22T09:27:11.424Z,17.50
2018-09-22T09:29:47.749Z,17.60
2018-09-22T09:32:23.141Z,17.60
2018-09-22T09:34:58.708Z,17.20
2018-09-22T09:37:34.062Z,17.90
2018-09-22T09:40:09.782Z,17.70
2018-09-22T09:42:45.243Z,17.70
2018-09-22T09:45:20.943Z,18.60
2018-09-22T09:47:56.496Z,17.30
2018-09-22T09:50:32.028Z,17.40
2018-09-22T09:53:07.442Z,18.10
2018-09-22T09:55:42.886Z,18.00
2018-09-22T09:58:18.934Z,18.00
2018-09-22T10:00:54.658Z,17.50
2018-09-22T10:03:30.187Z,17.70
2018-09-22T10:06:05.473Z,17.40
2018-09-22T10:08:40.840Z,18.30
2018-09-22T10:11:16.262Z,19.10
2018-09-22T10:13:51.711Z,19.60
2018-09-22T10:16:26.955Z,19.40
2018-09-22T10:19:02.807Z,19.30
2018-09-22T10:21:38.454Z,19.40
2018-09-22T10:24:13.882Z,19.60
2018-09-22T10:26:49.182Z,19.10
2018-09-22T10:29:24.669Z,19.10
2018-09-22T10:32:00.059Z,19.30
2018-09-22T10:34:35.635Z,18.60
2018-09-22T10:37:11.503Z,18.70
2018-09-22T10:39:46.697Z,20.00
2018-09-22T10:42:22.427Z,19.70
2018-09-22T10:44:58.222Z,20.50
2018-09-22T10:47:33.766Z,20.70
2018-09-22T10:50:15.783Z,20.30
2018-09-22T10:52:51.244Z,20.80
2018-09-22T10:55:26.818Z,19.80
2018-09-22T10:58:02.522Z,20.70
2018-09-22T11:00:37.953Z,20.60
2018-09-22T11:03:13.450Z,21.50
2018-09-22T11:05:49.133Z,22.70
2018-09-22T11:08:24.422Z,23.20
2018-09-22T11:11:00.019Z,23.30
2018-09-22T11:13:35.272Z,23.50
2018-09-22T11:16:11.653Z,23.30
2018-09-22T11:18:47.525Z,22.10
2018-09-22T11:21:22.935Z,21.50
2018-09-22T11:23:58.857Z,23.10
2018-09-22T11:26:34.140Z,21.80
2018-09-22T11:29:09.654Z,22.40
2018-09-22T11:31:45.441Z,22.40
2018-09-22T11:34:20.895Z,23.70
2018-09-22T11:36:55.910Z,25.20
2018-09-22T11:39:31.788Z,25.70
2018-09-22T11:42:06.802Z,25.50
2018-09-22T11:44:42.291Z,25.80
2018-09-22T11:47:17.475Z,24.90
2018-09-22T11:49:52.638Z,24.50
2018-09-22T11:52:28.158Z,25.40
2018-09-22T11:55:03.267Z,26.80
2018-09-22T11:57:39.134Z,27.30
2018-09-22T12:00:14.390Z,25.50
2018-09-22T12:02:49.445Z,26.90
2018-09-22T12:05:25.055Z,27.70
2018-09-22T12:08:00.195Z,27.00
2018-09-22T12:10:35.513Z,27.90
2018-09-22T12:13:10.427Z,26.60
2018-09-22T12:15:45.965Z,26.00
2018-09-22T12:18:21.201Z,25.20
2018-09-22T12:20:56.428Z,26.00
2018-09-22T12:23:31.650Z,26.90
2018-09-22T12:26:07.090Z,26.60
2018-09-22T12:28:42.714Z,27.20
2018-09-22T12:31:17.878Z,26.90
2018-09-22T12:33:53.209Z,27.20
2018-09-22T12:36:28.327Z,27.70
2018-09-22T12:39:05.358Z,29.20
2018-09-22T12:41:40.707Z,28.90
2018-09-22T12:44:15.729Z,29.00
2018-09-22T12:46:51.051Z,24.60
2018-09-22T12:49:26.393Z,24.60
2018-09-22T12:52:01.671Z,24.00
2018-09-22T12:54:36.786Z,25.90
2018-09-22T12:57:12.170Z,26.20
2018-09-22T12:59:47.722Z,27.50
2018-09-22T13:02:22.927Z,28.30
2018-09-22T13:04:57.909Z,27.70
2018-09-22T13:07:33.150Z,28.00
2018-09-22T13:10:08.450Z,28.00
2018-09-22T13:12:43.760Z,27.70
2018-09-22T13:15:18.877Z,27.00
2018-09-22T13:17:53.978Z,27.00
2018-09-22T13:20:29.486Z,29.30
2018-09-22T13:23:05.430Z,29.50
2018-09-22T13:25:40.529Z,30.30
2018-09-22T13:28:15.577Z,27.60
2018-09-22T13:30:50.930Z,28.10
2018-09-22T13:33:26.132Z,27.10
2018-09-22T13:36:01.173Z,26.40
2018-09-22T13:38:37.063Z,24.10
2018-09-22T13:41:13.176Z,24.00
2018-09-22T13:43:48.797Z,24.70
2018-09-22T13:46:23.735Z,26.40
2018-09-22T13:48:59.281Z,26.40
2018-09-22T13:51:34.262Z,24.10
2018-09-22T13:54:09.309Z,24.30
2018-09-22T13:56:44.475Z,24.20
2018-09-22T13:59:19.522Z,24.40
2018-09-22T14:01:55.577Z,25.60
2018-09-22T14:04:30.688Z,24.20
2018-09-22T14:07:05.891Z,25.40
2018-09-22T14:09:41.138Z,25.20
2018-09-22T14:12:16.221Z,25.90
2018-09-22T14:14:51.665Z,27.10
2018-09-22T14:17:27.771Z,24.70
2018-09-22T14:20:02.991Z,25.00
2018-09-22T14:22:37.990Z,26.30
2018-09-22T14:25:13.140Z,24.60
2018-09-22T14:27:48.457Z,24.30
2018-09-22T14:30:23.446Z,23.60
2018-09-22T14:33:05.272Z,24.10
2018-09-22T14:35:40.234Z,25.60
2018-09-22T14:38:15.485Z,26.20
2018-09-22T14:40:51.591Z,26.80
2018-09-22T14:43:26.991Z,26.20
2018-09-22T14:46:02.351Z,25.00
2018-09-22T14:48:37.540Z,24.70
2018-09-22T14:51:13.299Z,24.70
2018-09-22T14:53:49.581Z,24.50
2018-09-22T14:56:24.998Z,23.90
2018-09-22T14:59:00.691Z,24.20
2018-09-22T15:01:36.797Z,22.50
2018-09-22T15:04:12.093Z,21.10
2018-09-22T15:06:47.554Z,21.10
2018-09-22T15:09:24.022Z,22.50
2018-09-22T15:11:59.557Z,22.40
2018-09-22T15:14:35.150Z,22.50
2018-09-22T15:17:10.600Z,21.40
2018-09-22T15:19:45.934Z,20.90
2018-09-22T15:22:21.470Z,21.60
2018-09-22T15:24:57.481Z,20.90
2018-09-22T15:27:33.102Z,21.20
2018-09-22T15:30:08.486Z,21.80
2018-09-22T15:32:43.838Z,21.80
2018-09-22T15:35:19.968Z,21.50
2018-09-22T15:37:55.448Z,21.40
2018-09-22T15:40:30.846Z,20.40
2018-09-22T15:43:06.116Z,19.70
2018-09-22T15:45:41.822Z,19.50
2018-09-22T15:48:17.474Z,19.30
2018-09-22T15:50:52.938Z,19.70
2018-09-22T15:53:28.300Z,20.00
2018-09-22T15:56:03.646Z,20.20
2018-09-22T15:58:39.658Z,19.90
2018-09-22T16:01:14.867Z,20.00
2018-09-22T16:03:50.378Z,20.00
2018-09-22T16:06:25.727Z,19.30
2018-09-22T16:09:01.181Z,19.40
2018-09-22T16:11:36.923Z,19.50
2018-09-22T16:14:12.122Z,19.40
2018-09-22T16:16:48.214Z,19.10
2018-09-22T16:19:23.462Z,19.00
2018-09-22T16:21:58.958Z,19.00
2018-09-22T16:24:35.188Z,18.90
2018-09-22T16:27:10.722Z,18.60
2018-09-22T16:29:46.284Z,18.40
2018-09-22T16:32:21.825Z,18.50
2018-09-22T16:34:57.895Z,17.90
2018-09-22T16:37:33.718Z,18.10
2018-09-22T16:40:09.080Z,18.10
2018-09-22T16:42:44.466Z,18.00
2018-09-22T16:45:19.887Z,17.80
2018-09-22T16:47:55.406Z,17.90
2018-09-22T16:50:30.906Z,18.10
2018-09-22T16:53:06.711Z,18.30
2018-09-22T16:55:42.022Z,18.10
2018-09-22T16:58:17.297Z,18.20
2018-09-22T17:00:53.360Z,18.20
2018-09-22T17:03:28.812Z,18.20
2018-09-22T17:06:04.294Z,18.10
2018-09-22T17:08:40.807Z,18.10
2018-09-22T17:11:16.289Z,18.00
2018-09-22T17:13:58.337Z,17.80
2018-09-22T17:16:34.602Z,17.90
2018-09-22T17:19:10.082Z,17.70
2018-09-22T17:21:46.117Z,17.70
2018-09-22T17:24:20.884Z,17.70
2018-09-22T17:26:56.833Z,17.70
2018-09-22T17:29:33.349Z,17.40
2018-09-22T17:32:08.533Z,17.40
2018-09-22T17:34:43.558Z,17.20
2018-09-22T17:37:18.435Z,17.10
2018-09-22T17:39:53.581Z,17.10
2018-09-22T17:42:29.101Z,17.00
2018-09-22T17:45:04.722Z,16.70
2018-09-22T17:47:39.861Z,16.50
2018-09-22T17:50:14.742Z,16.50
2018-09-22T17:52:49.668Z,16.60
2018-09-22T17:55:24.438Z,16.70
2018-09-22T17:57:59.386Z,16.70
2018-09-22T18:00:34.301Z,16.80
2018-09-22T18:03:16.068Z,16.70
2018-09-22T18:05:50.829Z,16.50
2018-09-22T18:08:25.867Z,16.50
2018-09-22T18:11:00.818Z,16.60
2018-09-22T18:13:36.090Z,16.50
2018-09-22T18:16:10.821Z,16.40
2018-09-22T18:18:45.697Z,16.30
2018-09-22T18:21:20.457Z,16.20
2018-09-22T18:24:02.036Z,15.90
2018-09-22T18:26:37.055Z,16.10
2018-09-22T18:29:12.400Z,16.20
2018-09-22T18:31:47.316Z,16.20
2018-09-22T18:34:22.405Z,16.20
2018-09-22T18:36:57.227Z,16.20
2018-09-22T18:39:32.806Z,16.20
2018-09-22T18:42:07.922Z,16.00
2018-09-22T18:44:42.894Z,15.60
2018-09-22T18:47:17.913Z,15.60
2018-09-22T18:49:52.738Z,15.70
2018-09-22T18:52:27.501Z,15.70
2018-09-22T18:55:02.514Z,15.90
2018-09-22T18:57:37.231Z,15.60
2018-09-22T19:00:12.313Z,15.30
2018-09-22T19:02:47.012Z,15.60
2018-09-22T19:05:21.827Z,15.80
2018-09-22T19:07:56.778Z,15.80
2018-09-22T19:10:31.730Z,15.70
2018-09-22T19:13:08.218Z,15.70
2018-09-22T19:15:52.183Z,15.80
2018-09-22T19:18:32.205Z,15.70
2018-09-22T19:21:20.440Z,15.70
2018-09-22T19:24:01.121Z,16.00
2018-09-22T19:26:38.634Z,15.80
2018-09-22T19:30:18.324Z,15.60
2018-09-22T19:32:56.590Z,15.60
2018-09-22T19:35:37.871Z,15.40
2018-09-22T19:38:17.549Z,15.30
2018-09-22T19:41:02.698Z,15.40
2018-09-22T19:43:44.448Z,15.10
2018-09-22T19:46:22.236Z,15.30
2018-09-22T19:49:00.204Z,15.20
2018-09-22T19:51:37.922Z,15.00
2018-09-22T19:54:12.942Z,15.10
2018-09-22T19:56:47.795Z,14.50
2018-09-22T19:59:23.448Z,14.40
2018-09-22T20:01:58.491Z,14.50
2018-09-22T20:04:33.551Z,14.50
2018-09-22T20:07:08.346Z,14.50
2018-09-22T20:09:43.102Z,14.60
2018-09-22T20:12:17.878Z,14.50
2018-09-22T20:14:53.196Z,14.60
2018-09-22T20:17:27.939Z,14.70
2018-09-22T20:20:03.135Z,14.70
2018-09-22T20:22:38.201Z,14.70
2018-09-22T20:25:13.143Z,14.70
2018-09-22T20:27:47.824Z,14.60
2018-09-22T20:30:23.446Z,14.60
2018-09-22T20:32:58.555Z,14.70
2018-09-22T20:35:34.096Z,14.60
2018-09-22T20:38:08.833Z,14.60
2018-09-22T20:40:43.719Z,14.50
2018-09-22T20:43:18.397Z,14.60
2018-09-22T20:45:53.077Z,14.60
2018-09-22T20:48:27.959Z,14.70
2018-09-22T20:51:04.523Z,14.50
2018-09-22T20:53:39.281Z,14.50
2018-09-22T20:56:14.333Z,14.10
2018-09-22T20:58:49.140Z,14.10
2018-09-22T21:01:24.197Z,14.20
2018-09-22T21:03:59.014Z,14.40
2018-09-22T21:06:34.823Z,14.40
2018-09-22T21:09:10.674Z,14.20
2018-09-22T21:11:45.599Z,14.20
2018-09-22T21:14:20.530Z,14.30
2018-09-22T21:16:55.446Z,14.30
2018-09-22T21:19:30.121Z,14.30
2018-09-22T21:22:04.866Z,14.40
2018-09-22T21:24:39.735Z,14.40
2018-09-22T21:27:14.461Z,14.30
2018-09-22T21:29:49.353Z,14.30
2018-09-22T21:32:24.221Z,14.10
2018-09-22T21:34:59.719Z,13.80
2018-09-22T21:37:34.500Z,13.80
2018-09-22T21:40:09.408Z,13.80
2018-09-22T21:42:44.392Z,13.80
2018-09-22T21:45:19.519Z,13.70
2018-09-22T21:47:54.545Z,13.90
2018-09-22T21:50:29.659Z,13.90
2018-09-22T21:53:04.557Z,13.90
2018-09-22T21:55:39.566Z,13.70
2018-09-22T21:58:14.409Z,13.80
2018-09-22T22:00:53.598Z,13.80
2018-09-22T22:03:29.117Z,13.90
2018-09-22T22:06:03.824Z,14.00
2018-09-22T22:08:38.715Z,14.00
2018-09-22T22:11:13.687Z,13.90
2018-09-22T22:13:49.186Z,14.00
2018-09-22T22:16:23.985Z,14.20
2018-09-22T22:18:59.362Z,14.00
2018-09-22T22:21:34.431Z,14.10
2018-09-22T22:24:09.143Z,13.80
2018-09-22T22:26:44.081Z,13.90
2018-09-22T22:29:18.924Z,14.00
2018-09-22T22:31:53.754Z,14.10
2018-09-22T22:34:28.562Z,14.00
2018-09-22T22:37:03.630Z,14.10
2018-09-22T22:39:39.144Z,14.00
2018-09-22T22:42:14.006Z,13.90
2018-09-22T22:44:48.651Z,14.00
2018-09-22T22:47:24.362Z,13.90
2018-09-22T22:49:59.110Z,14.00
2018-09-22T22:52:34.522Z,14.00
2018-09-22T22:55:09.099Z,14.00
2018-09-22T22:57:43.987Z,14.10
2018-09-22T23:00:18.851Z,14.00
2018-09-22T23:02:53.991Z,13.90
2018-09-22T23:05:28.923Z,13.90
2018-09-22T23:08:04.046Z,13.90
2018-09-22T23:10:39.037Z,13.90
2018-09-22T23:13:14.541Z,13.90
2018-09-22T23:15:49.293Z,13.90
2018-09-22T23:18:24.381Z,13.80
2018-09-22T23:20:59.078Z,13.70
2018-09-22T23:23:34.069Z,13.70
2018-09-22T23:26:08.786Z,13.70
2018-09-22T23:28:43.453Z,13.60
2018-09-22T23:31:18.238Z,13.60
2018-09-22T23:33:53.823Z,13.50
2018-09-22T23:36:28.918Z,13.60
2018-09-22T23:39:04.000Z,13.70
2018-09-22T23:41:38.798Z,13.70
2018-09-22T23:44:13.723Z,13.80
2018-09-22T23:46:48.395Z,13.80
2018-09-22T23:49:23.230Z,13.90
2018-09-22T23:51:58.108Z,13.90
2018-09-22T23:54:33.151Z,13.90
2018-09-22T23:57:07.982Z,13.90
2018-09-22T23:59:42.838Z,14.00
